createdAt,value
2022-09-29T00:01:15.099Z,99039.55
2022-09-29T00:03:48.030Z,99036.42
2022-09-29T00:06:21.361Z,99039.83
2022-09-29T00:08:54.334Z,99037.15
2022-09-29T00:11:26.985Z,99047.22
2022-09-29T00:14:00.673Z,99049.32
2022-09-29T00:16:33.871Z,99055.85
2022-09-29T00:19:06.952Z,99060.19
2022-09-29T00:21:40.322Z,99072.02
2022-09-29T00:24:13.620Z,99073.72
2022-09-29T00:26:47.061Z,99072.84
2022-09-29T00:29:21.431Z,99062.30
2022-09-29T00:31:54.634Z,99071.98
2022-09-29T00:34:27.593Z,99074.20
2022-09-29T00:37:00.445Z,99069.84
2022-09-29T00:39:33.531Z,99073.41
2022-09-29T00:42:06.963Z,99080.89
2022-09-29T00:45:19.268Z,99091.84
2022-09-29T00:48:04.395Z,99091.77
2022-09-29T00:50:47.618Z,99092.59
2022-09-29T00:53:21.950Z,99092.09
2022-09-29T00:55:59.098Z,99088.13
2022-09-29T00:58:42.123Z,99092.09
2022-09-29T01:01:15.865Z,99087.66
2022-09-29T01:03:50.048Z,99100.33
2022-09-29T01:06:36.314Z,99109.16
2022-09-29T01:09:13.273Z,99110.91
2022-09-29T01:11:47.949Z,99115.33
2022-09-29T01:14:21.485Z,99118.45
2022-09-29T01:16:55.767Z,99125.11
2022-09-29T01:20:00.737Z,99128.69
2022-09-29T01:23:19.998Z,99127.80
2022-09-29T01:26:23.331Z,99135.73
2022-09-29T01:29:23.252Z,99142.37
2022-09-29T01:32:34.423Z,99144.20
2022-09-29T01:35:44.982Z,99146.02
2022-09-29T01:38:25.206Z,99151.77
2022-09-29T01:41:21.658Z,99157.54
2022-09-29T01:43:59.387Z,99157.95
2022-09-29T01:46:35.625Z,99162.81
2022-09-29T01:49:08.797Z,99169.00
2022-09-29T01:51:51.558Z,99169.09
2022-09-29T01:54:32.094Z,99171.30
2022-09-29T01:57:15.789Z,99169.11
2022-09-29T01:59:55.515Z,99175.26
2022-09-29T02:02:35.921Z,99178.36
2022-09-29T02:05:13.674Z,99179.20
2022-09-29T02:07:49.305Z,99181.44
2022-09-29T02:10:27.172Z,99179.67
2022-09-29T02:13:03.024Z,99179.29
2022-09-29T02:15:38.639Z,99181.51
2022-09-29T02:18:19.575Z,99186.80
2022-09-29T02:20:53.506Z,99193.86
2022-09-29T02:23:26.813Z,99184.66
2022-09-29T02:26:01.317Z,99189.08
2022-09-29T02:28:36.430Z,99205.33
2022-09-29T02:31:09.507Z,99200.94
2022-09-29T02:33:43.071Z,99203.61
2022-09-29T02:36:43.386Z,99209.78
2022-09-29T02:39:49.339Z,99211.95
2022-09-29T02:42:52.454Z,99212.85
2022-09-29T02:45:38.812Z,99218.56
2022-09-29T02:48:45.197Z,99224.72
2022-09-29T02:51:33.319Z,99223.80
2022-09-29T02:54:28.952Z,99226.88
2022-09-29T02:57:43.195Z,99222.46
2022-09-29T03:00:17.775Z,99226.41
2022-09-29T03:02:51.172Z,99228.64
2022-09-29T03:05:26.262Z,99229.55
2022-09-29T03:07:59.602Z,99229.55
2022-09-29T03:10:32.608Z,99230.91
2022-09-29T03:13:05.811Z,99230.02
2022-09-29T03:15:39.171Z,99236.98
2022-09-29T03:18:12.911Z,99238.30
2022-09-29T03:20:46.593Z,99240.96
2022-09-29T03:23:19.463Z,99241.87
2022-09-29T03:25:52.290Z,99248.87
2022-09-29T03:28:25.170Z,99254.60
2022-09-29T03:31:01.449Z,99256.85
2022-09-29T03:33:35.192Z,99261.75
2022-09-29T03:36:15.133Z,99263.06
2022-09-29T03:38:48.093Z,99273.64
2022-09-29T03:41:21.116Z,99276.27
2022-09-29T03:43:54.233Z,99277.59
2022-09-29T03:46:27.503Z,99285.50
2022-09-29T03:49:00.673Z,99281.55
2022-09-29T03:51:33.666Z,99277.59
2022-09-29T03:54:07.480Z,99281.52
2022-09-29T03:56:42.109Z,99274.87
2022-09-29T03:59:16.082Z,99277.13
2022-09-29T04:01:49.617Z,99283.77
2022-09-29T04:04:22.579Z,99287.36
2022-09-29T04:06:55.589Z,99290.47
2022-09-29T04:09:29.093Z,99289.23
2022-09-29T04:12:02.222Z,99292.80
2022-09-29T04:14:35.699Z,99298.05
2022-09-29T04:17:11.153Z,99302.00
2022-09-29T04:19:44.015Z,99308.23
2022-09-29T04:22:19.717Z,99314.02
2022-09-29T04:24:53.566Z,99311.41
2022-09-29T04:27:26.504Z,99316.74
2022-09-29T04:29:59.468Z,99320.31
2022-09-29T04:32:32.931Z,99321.21
2022-09-29T04:35:06.571Z,99330.91
2022-09-29T04:37:40.289Z,99329.59
2022-09-29T04:40:13.264Z,99323.84
2022-09-29T04:42:46.204Z,99325.64
2022-09-29T04:45:19.469Z,99329.62
2022-09-29T04:47:52.173Z,99332.20
2022-09-29T04:50:25.922Z,99328.22
2022-09-29T04:52:58.812Z,99325.55
2022-09-29T04:55:31.724Z,99328.69
2022-09-29T04:58:05.366Z,99324.78
2022-09-29T05:00:39.017Z,99318.27
2022-09-29T05:03:12.530Z,99315.70
2022-09-29T05:05:45.318Z,99315.40
2022-09-29T05:08:20.020Z,99330.86
2022-09-29T05:10:52.885Z,99333.98
2022-09-29T05:13:27.131Z,99329.20
2022-09-29T05:16:00.361Z,99338.51
2022-09-29T05:18:34.013Z,99339.43
2022-09-29T05:21:27.085Z,99347.02
2022-09-29T05:23:45.741Z,99347.04
2022-09-29T05:26:19.050Z,99351.02
2022-09-29T05:28:52.181Z,99358.50
2022-09-29T05:31:25.329Z,99352.39
2022-09-29T05:33:58.683Z,99354.61
2022-09-29T05:36:31.815Z,99356.83
2022-09-29T05:39:04.744Z,99364.28
2022-09-29T05:41:37.569Z,99369.58
2022-09-29T05:44:10.463Z,99366.56
2022-09-29T05:46:45.085Z,99377.22
2022-09-29T05:49:19.606Z,99381.30
2022-09-29T05:51:52.291Z,99387.58
2022-09-29T05:54:27.227Z,99392.91
2022-09-29T05:57:00.160Z,99396.47
2022-09-29T05:59:33.737Z,99402.66
2022-09-29T06:02:06.685Z,99410.21
2022-09-29T06:04:40.896Z,99414.67
2022-09-29T06:07:14.026Z,99420.91
2022-09-29T06:09:48.075Z,99419.17
2022-09-29T06:12:21.852Z,99419.22
2022-09-29T06:14:55.395Z,99430.70
2022-09-29T06:17:29.044Z,99432.52
2022-09-29T06:20:01.878Z,99439.57
2022-09-29T06:22:35.865Z,99437.83
2022-09-29T06:25:10.543Z,99437.00
2022-09-29T06:27:44.144Z,99441.91
2022-09-29T06:30:17.466Z,99443.29
2022-09-29T06:32:50.862Z,99451.59
2022-09-29T06:35:42.337Z,99452.02
2022-09-29T06:38:15.959Z,99454.26
2022-09-29T06:40:48.793Z,99454.81
2022-09-29T06:43:21.925Z,99452.30
2022-09-29T06:45:54.903Z,99455.53
2022-09-29T06:48:29.851Z,99454.66
2022-09-29T06:51:09.556Z,99455.11
2022-09-29T06:53:39.097Z,99455.17
2022-09-29T06:56:12.120Z,99465.81
2022-09-29T06:58:45.741Z,99463.20
2022-09-29T07:01:19.475Z,99468.98
2022-09-29T07:03:52.495Z,99474.36
2022-09-29T07:06:25.652Z,99473.52
2022-09-29T07:09:00.293Z,99489.89
2022-09-29T07:11:34.728Z,99486.30
2022-09-29T07:14:08.009Z,99486.27
2022-09-29T07:16:40.770Z,99494.62
2022-09-29T07:19:14.033Z,99490.23
2022-09-29T07:21:48.225Z,99492.00
2022-09-29T07:24:21.057Z,99490.27
2022-09-29T07:26:54.016Z,99486.78
2022-09-29T07:29:27.098Z,99493.42
2022-09-29T07:32:00.590Z,99496.45
2022-09-29T07:34:33.631Z,99499.50
2022-09-29T07:37:07.707Z,99491.95
2022-09-29T07:39:40.124Z,99495.87
2022-09-29T07:42:12.850Z,99495.83
2022-09-29T07:44:50.105Z,99508.07
2022-09-29T07:47:20.709Z,99515.52
2022-09-29T07:49:53.616Z,99515.13
2022-09-29T07:52:26.799Z,99519.97
2022-09-29T07:54:59.503Z,99517.70
2022-09-29T07:57:33.261Z,99521.23
2022-09-29T08:00:07.828Z,99515.95
2022-09-29T08:02:42.326Z,99514.26
2022-09-29T08:05:16.373Z,99519.50
2022-09-29T08:07:53.272Z,99518.24
2022-09-29T08:10:27.462Z,99505.57
2022-09-29T08:13:00.573Z,99506.12
2022-09-29T08:15:35.080Z,99507.55
2022-09-29T08:18:08.372Z,99510.80
2022-09-29T08:20:41.452Z,99515.34
2022-09-29T08:23:14.446Z,99513.68
2022-09-29T08:25:59.585Z,99513.78
2022-09-29T08:28:30.788Z,99522.72
2022-09-29T08:30:58.900Z,99520.15
2022-09-29T08:33:31.729Z,99523.78
2022-09-29T08:36:07.706Z,99523.95
2022-09-29T08:38:42.255Z,99528.93
2022-09-29T08:41:51.598Z,99520.20
2022-09-29T08:44:41.327Z,99523.80
2022-09-29T08:47:22.441Z,99522.47
2022-09-29T08:49:58.733Z,99525.59
2022-09-29T08:52:47.799Z,99523.82
2022-09-29T08:55:23.670Z,99522.56
2022-09-29T08:58:01.828Z,99527.52
2022-09-29T09:00:42.857Z,99526.31
2022-09-29T09:03:35.586Z,99522.42
2022-09-29T09:06:28.521Z,99527.36
2022-09-29T09:09:40.064Z,99526.02
2022-09-29T09:12:32.184Z,99523.38
2022-09-29T09:15:16.308Z,99529.63
2022-09-29T09:18:35.323Z,99530.08
2022-09-29T09:21:21.958Z,99534.55
2022-09-29T09:24:00.764Z,99532.83
2022-09-29T09:26:46.217Z,99531.53
2022-09-29T09:29:26.577Z,99528.89
2022-09-29T09:32:03.274Z,99532.02
2022-09-29T09:34:44.364Z,99532.02
2022-09-29T09:37:38.767Z,99546.18
2022-09-29T09:40:23.905Z,99545.75
2022-09-29T09:43:05.088Z,99543.08
2022-09-29T09:45:50.967Z,99539.03
2022-09-29T09:48:49.498Z,99547.86
2022-09-29T09:52:05.093Z,99544.34
2022-09-29T09:54:39.583Z,99543.02
2022-09-29T09:57:39.094Z,99546.14
2022-09-29T10:00:25.916Z,99540.44
2022-09-29T10:03:01.563Z,99544.41
2022-09-29T10:05:44.330Z,99542.21
2022-09-29T10:08:30.014Z,99539.10
2022-09-29T10:11:03.104Z,99535.57
2022-09-29T10:13:36.398Z,99539.98
2022-09-29T10:16:24.158Z,99544.42
2022-09-29T10:18:57.286Z,99536.86
2022-09-29T10:21:44.776Z,99547.52
2022-09-29T10:24:33.983Z,99540.88
2022-09-29T10:27:07.046Z,99548.39
2022-09-29T10:29:43.450Z,99542.19
2022-09-29T10:32:39.997Z,99542.20
2022-09-29T10:35:26.358Z,99545.30
2022-09-29T10:38:05.936Z,99545.30
2022-09-29T10:40:39.599Z,99544.42
2022-09-29T10:43:28.236Z,99548.41
2022-09-29T10:46:01.088Z,99543.98
2022-09-29T10:48:34.357Z,99547.06
2022-09-29T10:51:08.434Z,99547.06
2022-09-29T10:53:45.094Z,99542.66
2022-09-29T10:56:22.854Z,99542.65
2022-09-29T10:59:05.696Z,99550.17
2022-09-29T11:01:41.471Z,99546.64
2022-09-29T11:04:27.967Z,99545.73
2022-09-29T11:07:14.229Z,99548.86
2022-09-29T11:09:50.800Z,99553.27
2022-09-29T11:12:38.172Z,99546.63
2022-09-29T11:15:24.804Z,99547.95
2022-09-29T11:17:59.032Z,99548.41
2022-09-29T11:20:34.222Z,99546.20
2022-09-29T11:23:22.843Z,99545.30
2022-09-29T11:26:07.859Z,99545.30
2022-09-29T11:29:09.982Z,99557.27
2022-09-29T11:31:54.188Z,99560.38
2022-09-29T11:34:52.132Z,99561.70
2022-09-29T11:37:39.789Z,99559.92
2022-09-29T11:40:44.697Z,99555.52
2022-09-29T11:43:37.750Z,99560.38
2022-09-29T11:46:39.570Z,99554.60
2022-09-29T11:49:53.440Z,99555.05
2022-09-29T11:52:49.291Z,99560.38
2022-09-29T11:55:53.927Z,99559.49
2022-09-29T11:58:45.554Z,99555.50
2022-09-29T12:01:32.536Z,99559.49
2022-09-29T12:04:24.622Z,99562.60
2022-09-29T12:07:24.246Z,99561.69
2022-09-29T12:10:26.109Z,99564.34
2022-09-29T12:13:06.871Z,99566.13
2022-09-29T12:16:19.461Z,99569.68
2022-09-29T12:19:01.450Z,99570.55
2022-09-29T12:21:50.714Z,99569.68
2022-09-29T12:24:49.728Z,99576.33
2022-09-29T12:27:38.102Z,99577.23
2022-09-29T12:30:32.463Z,99576.33
2022-09-29T12:33:09.136Z,99573.21
2022-09-29T12:35:55.540Z,99578.98
2022-09-29T12:38:42.547Z,99581.64
2022-09-29T12:41:27.822Z,99577.65
2022-09-29T12:44:26.377Z,99582.09
2022-09-29T12:47:09.356Z,99586.95
2022-09-29T12:49:50.268Z,99579.41
2022-09-29T12:52:29.546Z,99576.30
2022-09-29T12:55:05.883Z,99580.75
2022-09-29T12:57:40.554Z,99587.41
2022-09-29T13:00:16.227Z,99586.53
2022-09-29T13:03:08.572Z,99587.86
2022-09-29T13:06:01.505Z,99588.28
2022-09-29T13:08:54.279Z,99587.41
2022-09-29T13:12:02.783Z,99591.85
2022-09-29T13:15:11.819Z,99598.92
2022-09-29T13:18:22.838Z,99605.58
2022-09-29T13:21:14.854Z,99607.33
2022-09-29T13:23:58.049Z,99618.88
2022-09-29T13:26:41.617Z,99617.09
2022-09-29T13:29:27.499Z,99617.96
2022-09-29T13:32:00.490Z,99620.63
2022-09-29T13:34:38.884Z,99627.27
2022-09-29T13:37:18.982Z,99630.38
2022-09-29T13:40:03.703Z,99632.16
2022-09-29T13:42:43.801Z,99629.95
2022-09-29T13:45:31.510Z,99634.36
2022-09-29T13:48:04.477Z,99633.02
2022-09-29T13:50:50.165Z,99639.66
2022-09-29T13:53:29.674Z,99633.01
2022-09-29T13:56:10.313Z,99641.88
2022-09-29T13:58:51.210Z,99653.39
2022-09-29T14:01:38.344Z,99654.72
2022-09-29T14:04:47.481Z,99650.28
2022-09-29T14:07:50.065Z,99650.73
2022-09-29T14:10:41.773Z,99649.86
2022-09-29T14:13:37.602Z,99657.37
2022-09-29T14:16:33.491Z,99656.48
2022-09-29T14:19:45.691Z,99659.13
2022-09-29T14:22:41.484Z,99669.30
2022-09-29T14:25:19.171Z,99667.55
2022-09-29T14:28:03.967Z,99666.63
2022-09-29T14:30:56.297Z,99671.08
2022-09-29T14:33:41.828Z,99679.05
2022-09-29T14:36:21.399Z,99677.70
2022-09-29T14:39:24.618Z,99683.45
2022-09-29T14:41:34.582Z,99680.34
2022-09-29T14:44:15.483Z,99693.59
2022-09-29T14:47:25.538Z,99683.85
2022-09-29T14:50:42.578Z,99679.86
2022-09-29T14:53:22.709Z,99683.33
2022-09-29T14:56:06.117Z,99695.25
2022-09-29T14:58:54.117Z,99690.81
2022-09-29T15:01:30.889Z,99699.62
2022-09-29T15:04:15.975Z,99698.70
2022-09-29T15:06:53.538Z,99702.64
2022-09-29T15:09:28.164Z,99709.22
2022-09-29T15:12:02.647Z,99702.11
2022-09-29T15:14:41.661Z,99715.76
2022-09-29T15:17:38.423Z,99717.96
2022-09-29T15:20:21.489Z,99718.36
2022-09-29T15:23:36.871Z,99720.50
2022-09-29T15:26:15.884Z,99724.88
2022-09-29T15:28:49.340Z,99724.75
2022-09-29T15:31:26.997Z,99728.66
2022-09-29T15:33:59.746Z,99731.71
2022-09-29T15:36:40.824Z,99732.53
2022-09-29T15:39:37.943Z,99743.09
2022-09-29T15:42:23.908Z,99739.50
2022-09-29T15:45:06.063Z,99741.63
2022-09-29T15:47:43.377Z,99734.91
2022-09-29T15:50:26.445Z,99742.78
2022-09-29T15:53:02.275Z,99743.14
2022-09-29T15:55:36.389Z,99750.11
2022-09-29T15:58:28.576Z,99757.12
2022-09-29T16:01:06.897Z,99752.67
2022-09-29T16:03:52.277Z,99750.34
2022-09-29T16:06:35.165Z,99759.49
2022-09-29T16:09:12.735Z,99766.09
2022-09-29T16:11:46.274Z,99763.80
2022-09-29T16:14:30.423Z,99769.55
2022-09-29T16:17:03.523Z,99770.42
2022-09-29T16:19:37.474Z,99772.20
2022-09-29T16:22:13.836Z,99780.12
2022-09-29T16:24:56.884Z,99780.05
2022-09-29T16:27:49.662Z,99787.46
2022-09-29T16:30:39.630Z,99776.33
2022-09-29T16:33:24.107Z,99782.36
2022-09-29T16:36:01.495Z,99779.20
2022-09-29T16:38:41.823Z,99785.70
2022-09-29T16:41:41.314Z,99786.05
2022-09-29T16:44:19.955Z,99785.45
2022-09-29T16:47:12.890Z,99790.61
2022-09-29T16:50:12.298Z,99797.59
2022-09-29T16:52:47.640Z,99803.68
2022-09-29T16:55:29.291Z,99802.31
2022-09-29T16:58:15.290Z,99801.75
2022-09-29T17:00:48.998Z,99799.47
2022-09-29T17:03:22.754Z,99799.82
2022-09-29T17:05:55.638Z,99807.31
2022-09-29T17:08:32.395Z,99805.50
2022-09-29T17:11:05.327Z,99808.55
2022-09-29T17:13:38.322Z,99804.03
2022-09-29T17:16:13.149Z,99805.73
2022-09-29T17:18:47.589Z,99806.12
2022-09-29T17:21:21.614Z,99806.50
2022-09-29T17:23:54.936Z,99808.67
2022-09-29T17:26:52.927Z,99808.17
2022-09-29T17:29:26.243Z,99818.22
2022-09-29T17:31:59.464Z,99817.21
2022-09-29T17:34:32.997Z,99813.60
2022-09-29T17:37:06.105Z,99815.27
2022-09-29T17:39:39.301Z,99814.30
2022-09-29T17:42:13.778Z,99819.05
2022-09-29T17:44:46.804Z,99824.23
2022-09-29T17:47:29.638Z,99824.13
2022-09-29T17:49:56.478Z,99822.30
2022-09-29T17:52:34.949Z,99822.34
2022-09-29T17:55:10.617Z,99825.48
2022-09-29T17:57:43.755Z,99835.20
2022-09-29T18:00:21.471Z,99835.11
2022-09-29T18:02:56.724Z,99834.97
2022-09-29T18:05:31.312Z,99831.86
2022-09-29T18:08:04.412Z,99833.17
2022-09-29T18:10:43.755Z,99832.77
2022-09-29T18:13:17.261Z,99835.34
2022-09-29T18:15:50.314Z,99841.88
2022-09-29T18:18:25.045Z,99839.95
2022-09-29T18:20:58.884Z,99846.05
2022-09-29T18:23:32.289Z,99846.00
2022-09-29T18:26:07.674Z,99854.27
2022-09-29T18:28:40.921Z,99852.44
2022-09-29T18:31:29.784Z,99853.64
2022-09-29T18:34:04.197Z,99856.22
2022-09-29T18:36:37.268Z,99861.34
2022-09-29T18:39:10.087Z,99858.13
2022-09-29T18:41:43.398Z,99851.38
2022-09-29T18:44:19.306Z,99856.95
2022-09-29T18:46:52.561Z,99868.27
2022-09-29T18:49:25.887Z,99873.98
2022-09-29T18:51:59.901Z,99870.91
2022-09-29T18:54:33.576Z,99875.19
2022-09-29T18:57:07.785Z,99876.50
2022-09-29T18:59:40.992Z,99872.06
2022-09-29T19:02:15.533Z,99872.98
2022-09-29T19:04:51.842Z,99866.39
2022-09-29T19:07:23.075Z,99872.06
2022-09-29T19:09:55.991Z,99878.59
2022-09-29T19:12:30.131Z,99874.62
2022-09-29T19:15:05.194Z,99877.27
2022-09-29T19:17:38.132Z,99879.86
2022-09-29T19:20:13.434Z,99884.11
2022-09-29T19:22:47.256Z,99893.22
2022-09-29T19:25:24.520Z,99890.91
2022-09-29T19:27:58.121Z,99901.92
2022-09-29T19:30:31.826Z,99898.05
2022-09-29T19:33:05.282Z,99901.57
2022-09-29T19:35:39.437Z,99892.34
2022-09-29T19:38:12.090Z,99902.48
2022-09-29T19:40:47.871Z,99899.29
2022-09-29T19:43:23.066Z,99903.13
2022-09-29T19:45:56.141Z,99899.09
2022-09-29T19:48:28.956Z,99906.44
2022-09-29T19:51:20.106Z,99905.08
2022-09-29T19:53:54.394Z,99912.98
2022-09-29T19:56:26.185Z,99917.73
2022-09-29T19:59:01.763Z,99915.41
2022-09-29T20:01:34.845Z,99919.19
2022-09-29T20:04:07.855Z,99913.27
2022-09-29T20:06:42.034Z,99908.83
2022-09-29T20:09:15.422Z,99915.91
2022-09-29T20:11:50.094Z,99910.24
2022-09-29T20:14:24.238Z,99899.70
2022-09-29T20:16:59.090Z,99911.91
2022-09-29T20:19:32.098Z,99909.50
2022-09-29T20:22:06.299Z,99912.44
2022-09-29T20:24:39.058Z,99917.98
2022-09-29T20:27:12.685Z,99917.02
2022-09-29T20:29:47.235Z,99916.48
2022-09-29T20:32:21.024Z,99914.24
2022-09-29T20:34:53.762Z,99926.58
2022-09-29T20:37:28.327Z,99924.91
2022-09-29T20:40:01.188Z,99922.19
2022-09-29T20:42:36.909Z,99926.05
2022-09-29T20:45:11.514Z,99926.40
2022-09-29T20:47:45.795Z,99929.03
2022-09-29T20:50:18.671Z,99932.11
2022-09-29T20:52:54.998Z,99933.42
2022-09-29T20:55:28.135Z,99934.74
2022-09-29T20:58:01.038Z,99938.30
2022-09-29T21:00:33.902Z,99928.20
2022-09-29T21:03:07.687Z,99932.15
2022-09-29T21:05:41.425Z,99938.30
2022-09-29T21:08:14.638Z,99933.91
2022-09-29T21:10:47.368Z,99929.47
2022-09-29T21:13:21.956Z,99925.47
2022-09-29T21:15:54.878Z,99925.78
2022-09-29T21:18:29.421Z,99920.77
2022-09-29T21:21:11.853Z,99924.87
2022-09-29T21:23:45.280Z,99925.91
2022-09-29T21:26:22.837Z,99935.42
2022-09-29T21:28:58.394Z,99937.02
2022-09-29T21:31:34.114Z,99934.20
2022-09-29T21:34:09.391Z,99936.25
2022-09-29T21:36:42.670Z,99933.02
2022-09-29T21:39:15.670Z,99932.87
2022-09-29T21:41:49.171Z,99931.45
2022-09-29T21:44:24.767Z,99930.44
2022-09-29T21:46:57.641Z,99936.92
2022-09-29T21:49:30.547Z,99937.73
2022-09-29T21:52:03.817Z,99938.13
2022-09-29T21:54:39.061Z,99946.84
2022-09-29T21:57:11.946Z,99948.55
2022-09-29T21:59:46.435Z,99953.76
2022-09-29T22:02:19.445Z,99951.08
2022-09-29T22:04:52.642Z,99953.17
2022-09-29T22:07:26.884Z,99956.50
2022-09-29T22:09:59.772Z,99966.33
2022-09-29T22:12:33.558Z,99966.92
2022-09-29T22:15:08.094Z,99971.84
2022-09-29T22:17:41.784Z,99977.94
2022-09-29T22:20:15.015Z,99980.07
2022-09-29T22:22:47.794Z,99989.69
2022-09-29T22:25:20.777Z,99990.95
2022-09-29T22:27:53.616Z,99993.47
2022-09-29T22:30:27.808Z,99998.59
2022-09-29T22:33:02.251Z,99995.86
2022-09-29T22:35:35.999Z,99994.09
2022-09-29T22:38:09.705Z,99998.48
2022-09-29T22:40:44.032Z,99987.95
2022-09-29T22:43:17.224Z,99996.67
2022-09-29T22:45:53.903Z,99994.47
2022-09-29T22:48:26.782Z,99994.47
2022-09-29T22:50:59.694Z,99981.21
2022-09-29T22:53:33.531Z,99979.30
2022-09-29T22:56:18.783Z,99981.83
2022-09-29T22:58:51.690Z,99980.78
2022-09-29T23:01:24.711Z,99977.94
2022-09-29T23:03:57.567Z,99980.03
2022-09-29T23:06:30.667Z,99976.03
2022-09-29T23:09:03.622Z,99969.00
2022-09-29T23:11:37.397Z,99970.22
2022-09-29T23:14:10.711Z,99971.88
2022-09-29T23:16:43.985Z,99979.70
2022-09-29T23:19:17.664Z,99986.71
2022-09-29T23:21:51.391Z,99986.11
2022-09-29T23:24:25.291Z,99990.81
2022-09-29T23:26:59.899Z,99991.95
2022-09-29T23:29:33.285Z,99994.59
2022-09-29T23:32:07.077Z,99996.44
2022-09-29T23:34:39.914Z,100000.39
2022-09-29T23:37:13.722Z,100013.53
2022-09-29T23:39:47.510Z,100011.19
2022-09-29T23:42:20.317Z,100007.99
2022-09-29T23:44:53.125Z,100014.96
2022-09-29T23:47:26.316Z,100006.14
2022-09-29T23:49:59.181Z,100014.13
2022-09-29T23:52:32.266Z,100019.50
2022-09-29T23:55:05.751Z,100019.94
2022-09-29T23:57:38.503Z,100028.22
